Time;durP1;ratioP1;P1;durP2;ratioP2;P2;SDS_P1;SDS_P2;PMS_P1;PMS_P2;Temp;Humidity;BMP_temperature;BMP_pressure;BME280_temperature;BME280_humidity;BME280_pressure;Samples;Min_cycle;Max_cycle;Signal;HPM_P1;HPM_P2
2021/06/18 00:02:23;;;;;;;6.07;5.18;;;20.90;99.90;;;;;;5022920;28;20131;-76
2021/06/18 00:04:48;;;;;;;5.80;4.90;;;20.90;99.90;;;;;;5053968;28;20503;-76
2021/06/18 00:07:14;;;;;;;5.35;4.80;;;21.00;99.90;;;;;;5053941;28;20433;-75
2021/06/18 00:09:39;;;;;;;7.13;5.22;;;21.10;99.90;;;;;;5044211;28;20096;-76
2021/06/18 00:12:05;;;;;;;6.45;4.78;;;21.10;99.90;;;;;;5047276;28;20027;-74
2021/06/18 00:14:31;;;;;;;6.43;4.97;;;21.20;99.90;;;;;;5042834;28;20055;-76
2021/06/18 00:16:57;;;;;;;6.05;4.45;;;21.10;99.90;;;;;;5022926;28;20049;-76
2021/06/18 00:19:22;;;;;;;6.93;5.53;;;21.20;99.90;;;;;;5036133;28;20501;-76
2021/06/18 00:21:48;;;;;;;7.38;5.15;;;20.90;99.90;;;;;;5040225;28;20476;-76
2021/06/18 00:24:14;;;;;;;8.77;5.18;;;21.10;99.90;;;;;;5044692;28;20029;-75
2021/06/18 00:26:39;;;;;;;5.53;4.72;;;20.90;99.90;;;;;;5048397;28;20029;-75
2021/06/18 00:29:05;;;;;;;6.18;5.45;;;21.20;99.90;;;;;;5043235;28;20109;-75
2021/06/18 00:31:31;;;;;;;7.82;5.07;;;20.90;99.90;;;;;;5022250;28;20036;-76
2021/06/18 00:33:57;;;;;;;8.57;4.90;;;21.10;99.90;;;;;;5034491;28;20033;-77
2021/06/18 00:36:22;;;;;;;6.80;5.30;;;21.00;99.90;;;;;;5029390;28;20029;-76
2021/06/18 00:38:48;;;;;;;5.30;4.80;;;21.00;99.90;;;;;;5027978;28;20017;-75
2021/06/18 00:41:14;;;;;;;6.50;4.78;;;21.00;99.90;;;;;;5055774;28;20081;-75
2021/06/18 00:43:39;;;;;;;6.88;4.95;;;21.00;99.90;;;;;;5047883;28;20095;-76
2021/06/18 00:46:05;;;;;;;6.22;5.22;;;20.90;99.90;;;;;;5032342;28;20051;-76
2021/06/18 00:48:31;;;;;;;6.55;5.75;;;21.10;99.90;;;;;;5045352;28;20092;-75
2021/06/18 00:50:57;;;;;;;7.68;5.03;;;21.20;99.90;;;;;;5023612;28;20022;-74
2021/06/18 00:53:22;;;;;;;7.10;5.20;;;21.30;99.90;;;;;;5045225;28;20113;-75
2021/06/18 00:55:48;;;;;;;8.10;5.38;;;21.40;99.90;;;;;;5048315;28;20033;-75
2021/06/18 00:58:14;;;;;;;7.70;5.10;;;21.40;99.90;;;;;;5034889;28;20475;-75
2021/06/18 01:00:42;;;;;;;6.97;5.30;;;21.40;99.90;;;;;;5033087;28;20144;-75
2021/06/18 01:03:07;;;;;;;6.07;5.47;;;20.90;99.90;;;;;;5033242;28;20102;-74
2021/06/18 01:05:33;;;;;;;6.10;5.50;;;21.00;99.90;;;;;;5032590;28;20060;-74
2021/06/18 01:08:07;;;;;;;6.47;5.18;;;21.10;99.90;;;;;;5041105;28;20098;-74
2021/06/18 01:11:09;;;;;;;6.95;5.00;;;20.90;99.90;;;;;;5036015;28;20036;-74
2021/06/18 01:13:48;;;;;;;6.90;5.10;;;20.90;99.90;;;;;;5033796;28;20053;-73
2021/06/18 01:16:17;;;;;;;6.50;5.13;;;20.80;99.90;;;;;;5042902;28;20025;-75
2021/06/18 01:18:59;;;;;;;5.97;5.38;;;20.80;99.90;;;;;;5032421;28;20053;-73
2021/06/18 01:21:27;;;;;;;5.38;4.88;;;20.90;99.90;;;;;;5032564;28;20403;-75
2021/06/18 01:24:07;;;;;;;10.57;5.30;;;20.90;99.90;;;;;;5038081;28;20029;-74
2021/06/18 01:27:03;;;;;;;6.65;4.80;;;20.80;99.90;;;;;;5038873;28;20032;-75
2021/06/18 01:29:35;;;;;;;9.65;5.07;;;21.00;99.90;;;;;;5040447;28;20498;-74
2021/06/18 01:32:04;;;;;;;7.07;5.40;;;21.10;99.90;;;;;;5051817;28;20505;-75
2021/06/18 01:34:32;;;;;;;7.35;5.00;;;21.20;99.90;;;;;;5039149;28;20021;-75
2021/06/18 01:37:17;;;;;;;10.05;6.43;;;21.20;99.90;;;;;;5021080;28;20056;-74
2021/06/18 01:39:46;;;;;;;6.60;5.63;;;20.70;99.90;;;;;;5036338;28;20026;-74
2021/06/18 01:42:14;;;;;;;7.63;4.97;;;20.80;99.90;;;;;;5042798;28;20029;-76
2021/06/18 01:44:41;;;;;;;6.65;5.10;;;20.90;99.90;;;;;;5038685;28;20414;-75
2021/06/18 01:47:09;;;;;;;8.40;5.45;;;20.80;99.90;;;;;;5052000;28;20025;-75
2021/06/18 01:49:38;;;;;;;6.45;5.35;;;20.80;99.90;;;;;;5047424;28;20026;-75
2021/06/18 01:52:05;;;;;;;6.78;5.75;;;20.80;99.90;;;;;;5025795;28;20024;-75
2021/06/18 01:54:32;;;;;;;5.90;5.22;;;20.50;99.90;;;;;;5046398;28;20499;-75
2021/06/18 01:57:01;;;;;;;8.88;5.50;;;20.50;99.90;;;;;;5026349;28;20163;-73
2021/06/18 01:59:30;;;;;;;9.70;6.30;;;20.50;99.90;;;;;;5046014;28;20021;-75
2021/06/18 02:01:57;;;;;;;7.40;5.50;;;20.50;99.90;;;;;;5031830;28;20040;-76
2021/06/18 02:04:23;;;;;;;7.60;5.25;;;20.50;99.90;;;;;;5020788;28;20481;-76
2021/06/18 02:06:51;;;;;;;6.30;5.70;;;20.40;99.90;;;;;;5038663;28;20029;-76
2021/06/18 02:09:18;;;;;;;7.72;5.18;;;20.40;99.90;;;;;;5000929;28;20515;-75
2021/06/18 02:11:45;;;;;;;8.60;5.60;;;20.50;99.90;;;;;;5032206;28;20045;-76
2021/06/18 02:14:16;;;;;;;9.48;5.40;;;20.50;99.90;;;;;;5044156;28;20036;-75
2021/06/18 02:16:45;;;;;;;8.73;5.55;;;20.50;99.90;;;;;;5033140;28;20030;-76
2021/06/18 02:19:14;;;;;;;7.43;5.43;;;20.10;99.90;;;;;;5051412;28;20025;-76
2021/06/18 02:21:40;;;;;;;7.63;5.20;;;20.00;99.90;;;;;;5035833;28;20452;-76
2021/06/18 02:24:07;;;;;;;9.75;5.93;;;20.10;99.90;;;;;;5031539;28;20021;-74
2021/06/18 02:26:33;;;;;;;10.18;5.70;;;20.10;99.90;;;;;;5031371;28;20037;-74
2021/06/18 02:28:59;;;;;;;9.70;5.95;;;20.10;99.90;;;;;;5031507;28;20030;-73
2021/06/18 02:31:28;;;;;;;8.55;5.70;;;20.10;99.90;;;;;;5031363;28;20030;-75
2021/06/18 02:33:54;;;;;;;6.43;5.75;;;20.10;99.90;;;;;;5013623;28;20029;-74
2021/06/18 02:36:20;;;;;;;8.02;5.63;;;20.20;99.90;;;;;;5013733;28;20075;-74
2021/06/18 02:38:48;;;;;;;6.93;5.80;;;20.10;99.90;;;;;;5031553;28;20119;-75
2021/06/18 02:41:13;;;;;;;7.53;5.78;;;20.00;99.90;;;;;;5031502;28;20026;-73
2021/06/18 02:43:40;;;;;;;7.07;6.20;;;19.90;99.90;;;;;;5031485;28;20118;-74
2021/06/18 02:46:06;;;;;;;8.82;6.20;;;19.60;99.90;;;;;;5034225;28;20598;-75
2021/06/18 02:48:42;;;;;;;7.63;6.90;;;19.60;99.90;;;;;;5024027;28;20111;-75
2021/06/18 02:51:20;;;;;;;10.20;7.55;;;19.30;99.90;;;;;;5031339;28;20028;-75
2021/06/18 02:53:50;;;;;;;9.98;7.90;;;19.40;99.90;;;;;;5031703;28;20021;-74
2021/06/18 02:56:31;;;;;;;8.75;7.75;;;19.50;99.90;;;;;;5000575;28;20025;-75
2021/06/18 02:59:06;;;;;;;9.35;8.43;;;19.60;99.90;;;;;;5031282;28;20029;-75
2021/06/18 03:01:37;;;;;;;7.60;6.68;;;19.60;99.90;;;;;;5023415;28;20021;-74
2021/06/18 03:04:04;;;;;;;8.30;7.50;;;19.50;99.90;;;;;;5034037;28;20488;-75
2021/06/18 03:06:34;;;;;;;9.15;7.05;;;19.30;99.90;;;;;;5034215;28;20030;-75
2021/06/18 03:09:05;;;;;;;10.57;7.32;;;19.10;99.90;;;;;;5048333;28;20032;-73
2021/06/18 03:11:39;;;;;;;16.42;6.85;;;19.20;99.90;;;;;;5017135;28;20025;-75
2021/06/18 03:14:12;;;;;;;11.65;6.85;;;19.30;99.90;;;;;;5034636;28;20052;-75
2021/06/18 03:16:40;;;;;;;11.10;6.93;;;19.20;99.90;;;;;;5016790;28;20026;-75
2021/06/18 03:19:08;;;;;;;10.82;6.13;;;19.30;99.90;;;;;;5017255;28;20430;-75
2021/06/18 03:21:36;;;;;;;9.85;7.00;;;19.30;99.90;;;;;;5034750;28;20048;-73
2021/06/18 03:24:04;;;;;;;9.57;6.82;;;19.40;99.90;;;;;;5042540;28;20018;-75
2021/06/18 03:26:31;;;;;;;10.25;6.90;;;19.50;99.90;;;;;;5022007;28;20037;-74
2021/06/18 03:28:58;;;;;;;12.55;7.25;;;19.50;99.90;;;;;;5034671;28;20423;-74
2021/06/18 03:31:25;;;;;;;10.48;7.30;;;19.40;99.90;;;;;;5047716;28;20587;-74
2021/06/18 03:33:52;;;;;;;11.40;7.65;;;19.30;99.90;;;;;;5034514;28;20037;-74
2021/06/18 03:36:24;;;;;;;9.20;8.30;;;18.90;99.90;;;;;;5034388;28;20036;-73
2021/06/18 03:38:51;;;;;;;9.60;8.48;;;18.50;99.90;;;;;;5034382;28;20022;-72
2021/06/18 03:41:18;;;;;;;11.73;7.82;;;18.40;99.90;;;;;;5024080;28;20035;-73
2021/06/18 03:43:44;;;;;;;9.52;7.68;;;18.70;99.90;;;;;;5044208;28;20059;-72
2021/06/18 03:46:10;;;;;;;9.60;7.28;;;18.80;99.90;;;;;;5034100;28;20456;-74
2021/06/18 03:48:37;;;;;;;8.80;7.93;;;18.90;99.90;;;;;;5034275;28;20021;-74
2021/06/18 03:51:06;;;;;;;13.95;7.90;;;19.00;99.90;;;;;;5033970;28;20030;-74
2021/06/18 03:53:36;;;;;;;12.70;8.25;;;18.90;99.90;;;;;;5034099;28;20049;-74
2021/06/18 03:56:02;;;;;;;8.48;7.38;;;18.90;99.90;;;;;;5052355;28;20491;-74
2021/06/18 03:58:29;;;;;;;10.95;7.47;;;19.00;99.90;;;;;;5053823;28;20025;-73
2021/06/18 04:00:56;;;;;;;8.68;7.25;;;19.10;99.90;;;;;;5035936;28;20023;-74
2021/06/18 04:03:22;;;;;;;12.35;7.35;;;19.20;99.90;;;;;;5024942;28;20388;-73
2021/06/18 04:05:50;;;;;;;13.82;7.40;;;19.20;99.90;;;;;;5038541;28;20044;-73
2021/06/18 04:08:19;;;;;;;10.57;7.25;;;19.40;99.90;;;;;;5042327;28;20025;-73
2021/06/18 04:10:45;;;;;;;8.70;6.80;;;19.40;99.90;;;;;;5033648;28;20022;-73
2021/06/18 04:13:12;;;;;;;12.10;7.65;;;19.60;99.90;;;;;;5045744;28;20029;-74
2021/06/18 04:15:39;;;;;;;13.18;7.72;;;19.80;99.90;;;;;;5029998;28;20060;-73
2021/06/18 04:18:05;;;;;;;12.00;7.65;;;19.60;99.90;;;;;;5033795;28;20430;-74
2021/06/18 04:20:33;;;;;;;11.13;7.78;;;19.50;99.90;;;;;;5016913;28;20029;-73
2021/06/18 04:22:58;;;;;;;8.32;6.97;;;19.40;99.90;;;;;;5033650;28;20062;-73
2021/06/18 04:25:24;;;;;;;9.25;7.43;;;19.40;99.90;;;;;;5033731;28;20025;-73
2021/06/18 04:27:51;;;;;;;8.15;7.38;;;19.50;99.90;;;;;;5024049;28;20083;-73
2021/06/18 04:30:17;;;;;;;10.02;8.25;;;19.50;99.90;;;;;;5046846;28;20022;-73
2021/06/18 04:32:43;;;;;;;9.63;7.60;;;19.60;99.90;;;;;;5045032;28;20103;-74
2021/06/18 04:35:10;;;;;;;10.10;7.97;;;19.60;99.90;;;;;;5035081;28;20100;-73
2021/06/18 04:37:37;;;;;;;9.93;8.30;;;19.40;99.90;;;;;;5045169;28;20506;-72
2021/06/18 04:40:07;;;;;;;9.10;8.30;;;19.30;99.90;;;;;;5034234;28;20035;-73
2021/06/18 04:42:32;;;;;;;9.52;8.32;;;18.90;99.90;;;;;;5033291;28;20021;-73
2021/06/18 04:44:58;;;;;;;8.73;7.80;;;19.10;99.90;;;;;;5033236;28;20036;-73
2021/06/18 04:47:24;;;;;;;9.95;7.82;;;19.50;99.90;;;;;;5046450;28;20498;-72
2021/06/18 04:49:50;;;;;;;8.63;7.75;;;19.80;99.90;;;;;;5039691;28;20081;-73
2021/06/18 04:52:17;;;;;;;13.88;7.95;;;20.00;99.90;;;;;;5039546;28;20021;-74
2021/06/18 04:54:43;;;;;;;12.35;7.88;;;20.10;99.90;;;;;;5045928;28;20036;-74
2021/06/18 04:57:09;;;;;;;8.10;7.40;;;20.20;99.90;;;;;;5033062;28;20104;-74
2021/06/18 04:59:39;;;;;;;11.63;7.70;;;20.20;99.90;;;;;;5021882;28;20154;-73
2021/06/18 05:02:05;;;;;;;8.10;7.30;;;20.20;99.90;;;;;;5039657;28;20067;-74
2021/06/18 05:04:31;;;;;;;9.27;7.90;;;20.50;99.90;;;;;;5045250;28;20033;-73
2021/06/18 05:06:57;;;;;;;10.55;8.25;;;20.40;99.90;;;;;;5046099;28;20479;-74
2021/06/18 05:09:23;;;;;;;9.38;7.63;;;20.50;99.90;;;;;;5022275;28;20104;-74
2021/06/18 05:11:48;;;;;;;9.27;8.23;;;20.50;99.90;;;;;;5038660;28;20494;-74
2021/06/18 05:14:14;;;;;;;8.95;7.82;;;20.60;99.90;;;;;;5039813;28;20116;-71
2021/06/18 05:16:40;;;;;;;8.80;7.30;;;20.80;99.90;;;;;;5052239;28;20028;-70
2021/06/18 05:19:06;;;;;;;11.07;7.68;;;21.00;99.90;;;;;;5052340;28;20052;-71
2021/06/18 05:21:32;;;;;;;9.95;7.80;;;21.20;99.90;;;;;;5052422;28;20360;-71
2021/06/18 05:23:58;;;;;;;10.70;7.47;;;21.40;99.90;;;;;;5052218;28;20087;-71
2021/06/18 05:26:23;;;;;;;9.45;6.80;;;21.50;99.90;;;;;;5034406;28;20029;-71
2021/06/18 05:28:49;;;;;;;11.52;7.75;;;21.80;99.90;;;;;;5051302;28;20020;-71
2021/06/18 05:31:14;;;;;;;9.60;8.02;;;21.90;99.90;;;;;;5038086;28;20480;-70
2021/06/18 05:33:40;;;;;;;10.43;8.23;;;21.90;99.90;;;;;;5032296;28;20044;-71
2021/06/18 05:36:06;;;;;;;9.20;7.82;;;21.80;99.90;;;;;;5032380;28;20025;-71
2021/06/18 05:38:31;;;;;;;12.05;8.15;;;21.90;99.90;;;;;;5052067;28;20052;-71
2021/06/18 05:40:57;;;;;;;8.18;7.03;;;22.00;99.90;;;;;;5038018;28;20104;-71
2021/06/18 05:43:22;;;;;;;9.50;7.78;;;22.10;99.90;;;;;;5032149;28;20086;-71
2021/06/18 05:45:48;;;;;;;8.35;7.03;;;22.20;99.90;;;;;;5031608;28;20029;-71
2021/06/18 05:48:13;;;;;;;9.98;7.80;;;22.20;99.90;;;;;;5052005;28;20033;-71
2021/06/18 05:50:39;;;;;;;9.20;7.30;;;22.20;99.90;;;;;;5033679;28;20029;-72
2021/06/18 05:53:04;;;;;;;7.78;7.00;;;22.40;99.90;;;;;;5051858;28;20026;-71
2021/06/18 05:55:30;;;;;;;9.90;7.47;;;22.50;99.90;;;;;;5020918;28;20022;-72
2021/06/18 05:57:56;;;;;;;11.02;7.60;;;22.50;99.90;;;;;;5027581;28;20388;-72
2021/06/18 06:00:21;;;;;;;11.75;7.07;;;22.60;99.90;;;;;;5026920;28;20029;-72
2021/06/18 06:02:47;;;;;;;9.13;7.88;;;22.60;99.90;;;;;;5020833;28;20032;-72
2021/06/18 06:05:13;;;;;;;9.85;7.28;;;22.70;99.90;;;;;;5038999;28;20579;-72
2021/06/18 06:07:47;;;;;;;9.20;7.38;;;22.80;99.90;;;;;;5037615;28;20043;-72
2021/06/18 06:10:14;;;;;;;10.00;7.85;;;22.80;99.90;;;;;;5037981;28;20030;-73
2021/06/18 06:12:41;;;;;;;9.18;8.27;;;22.80;99.90;;;;;;5030583;28;20115;-73
2021/06/18 06:15:07;;;;;;;9.70;8.70;;;23.00;99.90;;;;;;5020082;28;20530;-73
2021/06/18 06:17:32;;;;;;;9.80;8.80;;;23.10;99.90;;;;;;5044333;28;20045;-73
2021/06/18 06:19:58;;;;;;;14.98;9.48;;;23.00;99.90;;;;;;5044955;28;20025;-73
2021/06/18 06:22:24;;;;;;;11.57;9.35;;;23.10;99.90;;;;;;5038936;28;20033;-73
2021/06/18 06:24:49;;;;;;;11.48;9.27;;;23.10;99.90;;;;;;5038194;28;20057;-73
2021/06/18 06:27:15;;;;;;;12.35;8.63;;;23.20;99.90;;;;;;5044550;28;20037;-73
2021/06/18 06:29:40;;;;;;;12.43;8.70;;;23.40;99.90;;;;;;5044953;28;20031;-73
2021/06/18 06:32:06;;;;;;;10.05;8.52;;;23.50;99.90;;;;;;5031711;28;20030;-73
2021/06/18 06:34:32;;;;;;;8.75;7.95;;;23.50;99.90;;;;;;5031566;28;20040;-73
2021/06/18 06:36:58;;;;;;;9.35;8.38;;;23.40;99.90;;;;;;5025252;28;20044;-73
2021/06/18 06:39:23;;;;;;;8.55;7.82;;;23.60;99.90;;;;;;5039273;28;20048;-73
2021/06/18 06:41:49;;;;;;;9.60;7.88;;;23.80;99.90;;;;;;5043003;28;20407;-73
2021/06/18 06:44:14;;;;;;;9.45;8.45;;;24.00;99.90;;;;;;5042096;28;20076;-73
2021/06/18 06:46:40;;;;;;;8.95;8.02;;;24.10;99.90;;;;;;5047869;28;20037;-73
2021/06/18 06:49:05;;;;;;;8.68;7.68;;;24.10;99.90;;;;;;5048702;28;20024;-73
2021/06/18 06:51:31;;;;;;;7.88;7.05;;;24.30;99.90;;;;;;5042805;28;20153;-73
2021/06/18 06:53:57;;;;;;;10.07;7.57;;;24.50;99.90;;;;;;5040919;28;20171;-73
2021/06/18 06:56:22;;;;;;;7.60;6.80;;;24.70;99.90;;;;;;5035326;28;20029;-73
2021/06/18 06:58:48;;;;;;;10.93;6.07;;;25.00;99.90;;;;;;5048770;28;20032;-73
2021/06/18 07:01:13;;;;;;;8.35;6.13;;;25.20;99.90;;;;;;5054913;28;20368;-73
2021/06/18 07:03:40;;;;;;;6.65;5.95;;;25.40;99.90;;;;;;5055432;28;20476;-71
2021/06/18 07:06:07;;;;;;;7.20;6.50;;;25.50;99.90;;;;;;5054821;28;20027;-71
2021/06/18 07:08:32;;;;;;;6.65;6.03;;;25.30;99.90;;;;;;5041365;28;20117;-71
2021/06/18 07:10:58;;;;;;;6.72;6.07;;;25.50;99.90;;;;;;5034782;28;20465;-71
2021/06/18 07:13:24;;;;;;;6.72;6.03;;;25.70;99.90;;;;;;5034747;28;20025;-71
2021/06/18 07:15:51;;;;;;;7.43;5.50;;;25.70;99.90;;;;;;5034729;28;20026;-71
2021/06/18 07:18:16;;;;;;;7.38;5.88;;;25.80;99.90;;;;;;5034823;28;20022;-71
2021/06/18 07:20:42;;;;;;;9.48;5.70;;;26.00;99.90;;;;;;5054278;28;20028;-73
2021/06/18 07:23:09;;;;;;;6.68;5.80;;;25.90;99.90;;;;;;5036866;28;20490;-71
2021/06/18 07:25:36;;;;;;;9.63;6.28;;;26.10;99.90;;;;;;5016836;28;20029;-74
2021/06/18 07:28:06;;;;;;;8.07;5.80;;;26.20;99.90;;;;;;5016937;28;20059;-73
2021/06/18 07:30:33;;;;;;;10.40;6.22;;;26.20;99.90;;;;;;5021623;28;20048;-73
2021/06/18 07:32:58;;;;;;;10.60;5.72;;;26.20;99.90;;;;;;5034479;28;20029;-73
2021/06/18 07:35:24;;;;;;;7.55;5.75;;;26.10;99.90;;;;;;5034365;28;20506;-73
2021/06/18 07:37:49;;;;;;;7.32;6.13;;;26.20;99.90;;;;;;5034422;28;20017;-73
2021/06/18 07:40:17;;;;;;;7.50;6.80;;;26.20;99.90;;;;;;5034251;28;20040;-73
2021/06/18 07:42:43;;;;;;;7.35;6.10;;;26.20;99.90;;;;;;5032905;28;20028;-72
2021/06/18 07:45:10;;;;;;;7.38;5.90;;;26.50;99.90;;;;;;5015672;28;20076;-73
2021/06/18 07:47:35;;;;;;;7.35;5.82;;;26.60;99.90;;;;;;5047367;28;20438;-73
2021/06/18 07:50:01;;;;;;;7.10;6.40;;;26.60;99.90;;;;;;5033785;28;20021;-73
2021/06/18 07:52:26;;;;;;;7.05;6.03;;;26.60;99.90;;;;;;5015739;28;20383;-73
2021/06/18 07:54:54;;;;;;;8.27;6.00;;;26.70;99.90;;;;;;5034280;28;20326;-72
2021/06/18 07:57:19;;;;;;;6.75;6.00;;;26.90;99.90;;;;;;5016289;28;20025;-73
2021/06/18 07:59:45;;;;;;;7.03;6.32;;;27.00;99.90;;;;;;5033852;28;20369;-73
2021/06/18 08:02:10;;;;;;;9.63;6.10;;;27.10;99.90;;;;;;5033808;28;20404;-73
2021/06/18 08:04:36;;;;;;;6.72;5.78;;;27.20;99.90;;;;;;5033929;28;20475;-73
2021/06/18 08:07:02;;;;;;;6.32;5.72;;;27.20;99.90;;;;;;5033860;28;20029;-73
2021/06/18 08:09:27;;;;;;;8.23;5.80;;;27.20;99.90;;;;;;5033609;28;20479;-73
2021/06/18 08:11:53;;;;;;;6.72;6.07;;;27.20;99.90;;;;;;5016047;28;20395;-73
2021/06/18 08:14:19;;;;;;;6.32;5.82;;;27.40;99.90;;;;;;5033784;28;20408;-73
2021/06/18 08:16:44;;;;;;;6.18;5.57;;;27.10;99.90;;;;;;5033546;28;20064;-73
2021/06/18 08:19:10;;;;;;;6.57;5.97;;;26.90;99.90;;;;;;5033467;28;20064;-73
2021/06/18 08:21:36;;;;;;;7.53;6.32;;;27.00;99.90;;;;;;5015724;28;20022;-73
2021/06/18 08:24:01;;;;;;;6.95;6.38;;;27.30;99.90;;;;;;5033505;28;20124;-73
2021/06/18 08:26:27;;;;;;;6.53;5.93;;;27.20;99.90;;;;;;5033496;28;20025;-73
2021/06/18 08:28:52;;;;;;;7.93;6.28;;;27.30;99.90;;;;;;5014864;28;20573;-73
2021/06/18 08:31:18;;;;;;;10.20;6.28;;;27.20;99.90;;;;;;5032774;28;20034;-72
2021/06/18 08:33:43;;;;;;;6.90;5.93;;;27.20;99.90;;;;;;5033558;28;20029;-73
2021/06/18 08:36:09;;;;;;;6.60;5.80;;;27.20;99.90;;;;;;5034065;28;20033;-73
2021/06/18 08:38:35;;;;;;;7.45;6.05;;;27.10;99.90;;;;;;5044011;28;20033;-73
2021/06/18 08:41:04;;;;;;;10.07;8.70;;;27.40;99.90;;;;;;5032679;28;20021;-73
2021/06/18 08:43:31;;;;;;;7.53;6.78;;;27.60;99.90;;;;;;5038200;28;20088;-73
2021/06/18 08:46:00;;;;;;;7.50;6.70;;;27.90;99.90;;;;;;5038412;28;20029;-73
2021/06/18 08:48:27;;;;;;;7.40;6.28;;;27.80;99.90;;;;;;5041905;28;20639;-73
2021/06/18 08:50:52;;;;;;;6.80;6.05;;;27.60;99.90;;;;;;5039825;28;20112;-71
2021/06/18 08:53:18;;;;;;;9.02;6.65;;;27.50;99.90;;;;;;5034880;28;20103;-73
2021/06/18 08:55:44;;;;;;;7.78;6.90;;;27.80;99.90;;;;;;5041859;28;20024;-73
2021/06/18 08:58:10;;;;;;;13.00;9.68;;;28.10;99.90;;;;;;5032744;28;20133;-73
2021/06/18 09:00:47;;;;;;;8.45;6.75;;;28.30;99.90;;;;;;5034681;28;20022;-73
2021/06/18 09:03:50;;;;;;;7.15;6.43;;;28.40;99.90;;;;;;5016093;28;20572;-73
2021/06/18 09:06:56;;;;;;;6.60;6.00;;;28.40;99.90;;;;;;5033923;28;20029;-73
2021/06/18 09:09:26;;;;;;;7.35;6.50;;;28.40;99.90;;;;;;5032946;28;20048;-73
2021/06/18 09:11:53;;;;;;;9.20;6.22;;;28.60;99.90;;;;;;5032707;28;20100;-72
2021/06/18 09:14:36;;;;;;;6.85;6.25;;;28.50;99.90;;;;;;5031963;28;20437;-73
2021/06/18 09:17:07;;;;;;;6.57;5.97;;;28.50;99.90;;;;;;5036368;28;20026;-73
2021/06/18 09:19:36;;;;;;;7.40;6.13;;;28.60;99.90;;;;;;5021422;28;20494;-73
2021/06/18 09:22:06;;;;;;;8.65;6.70;;;28.60;99.90;;;;;;5016180;28;20025;-73
2021/06/18 09:24:35;;;;;;;7.07;6.40;;;28.50;99.90;;;;;;5026447;28;20028;-73
2021/06/18 09:27:01;;;;;;;9.82;6.53;;;28.40;99.90;;;;;;5040167;28;20091;-73
2021/06/18 09:29:27;;;;;;;6.80;6.15;;;28.30;99.90;;;;;;5035412;28;20026;-73
2021/06/18 09:31:54;;;;;;;9.13;6.15;;;28.50;99.90;;;;;;5037963;28;20032;-73
2021/06/18 09:34:48;;;;;;;8.18;6.30;;;28.50;99.90;;;;;;5033584;28;20021;-73
2021/06/18 09:37:31;;;;;;;7.07;6.20;;;28.60;99.90;;;;;;5031245;28;20021;-73
2021/06/18 09:40:05;;;;;;;9.35;6.43;;;28.80;99.90;;;;;;5031334;28;20025;-73
2021/06/18 09:42:33;;;;;;;6.85;6.15;;;28.70;99.90;;;;;;5032277;28;20021;-73
2021/06/18 09:45:01;;;;;;;9.32;6.40;;;28.80;99.90;;;;;;5019749;28;20447;-73
2021/06/18 09:47:26;;;;;;;9.75;6.22;;;29.10;99.90;;;;;;5021243;28;20120;-73
2021/06/18 09:49:52;;;;;;;10.18;6.28;;;29.20;99.90;;;;;;5030983;28;20108;-73
2021/06/18 09:52:18;;;;;;;8.65;6.18;;;29.40;99.90;;;;;;5036400;28;20044;-73
2021/06/18 09:54:49;;;;;;;7.20;6.22;;;29.70;99.90;;;;;;5033799;28;20563;-73
2021/06/18 09:57:17;;;;;;;7.78;6.55;;;29.80;99.90;;;;;;5019478;28;20407;-73
2021/06/18 09:59:58;;;;;;;7.25;6.30;;;30.00;99.90;;;;;;5036021;28;20032;-73
2021/06/18 10:02:46;;;;;;;6.93;6.22;;;29.90;99.90;;;;;;5045469;28;20024;-73
2021/06/18 10:05:20;;;;;;;7.90;7.10;;;30.00;99.90;;;;;;5014836;28;20087;-73
2021/06/18 10:07:50;;;;;;;7.38;6.57;;;29.50;99.90;;;;;;5015930;28;20025;-73
2021/06/18 10:10:18;;;;;;;6.97;6.13;;;29.60;99.90;;;;;;5025500;28;20029;-73
2021/06/18 10:12:45;;;;;;;7.18;6.05;;;29.50;99.90;;;;;;5031345;28;20029;-74
2021/06/18 10:15:19;;;;;;;7.15;6.45;;;29.90;99.90;;;;;;5032981;28;20503;-73
2021/06/18 10:17:46;;;;;;;8.20;6.68;;;30.20;99.90;;;;;;5032509;28;20048;-73
2021/06/18 10:20:32;;;;;;;8.82;6.82;;;30.40;99.90;;;;;;5030930;28;20083;-73
2021/06/18 10:23:04;;;;;;;7.35;6.68;;;30.40;99.90;;;;;;5041266;28;20054;-74
2021/06/18 10:25:53;;;;;;;10.35;6.20;;;30.50;99.90;;;;;;5033512;28;20033;-74
2021/06/18 10:28:22;;;;;;;6.57;6.07;;;30.70;99.90;;;;;;5019804;28;20033;-73
2021/06/18 10:30:53;;;;;;;7.10;6.40;;;30.60;99.90;;;;;;5011668;28;20048;-73
2021/06/18 10:33:25;;;;;;;8.25;6.40;;;30.70;99.90;;;;;;5034517;28;20033;-73
2021/06/18 10:36:05;;;;;;;7.05;6.43;;;30.70;99.90;;;;;;5039585;28;20022;-73
2021/06/18 10:39:01;;;;;;;7.28;6.50;;;30.60;99.90;;;;;;5030476;28;20105;-74
2021/06/18 10:41:27;;;;;;;6.18;5.47;;;31.20;99.90;;;;;;5035651;28;20013;-73
2021/06/18 10:43:57;;;;;;;7.05;6.05;;;31.50;99.90;;;;;;5046565;28;20028;-73
2021/06/18 10:46:30;;;;;;;9.45;7.20;;;31.50;99.90;;;;;;5043553;28;20030;-73
2021/06/18 10:49:12;;;;;;;7.13;6.60;;;31.10;99.90;;;;;;5038362;28;20105;-73
2021/06/18 10:51:40;;;;;;;6.50;5.68;;;31.10;99.90;;;;;;5031617;28;20025;-73
2021/06/18 10:54:26;;;;;;;8.10;6.40;;;31.10;99.90;;;;;;5039253;28;20118;-73
2021/06/18 10:56:58;;;;;;;7.25;6.55;;;31.30;99.90;;;;;;5034828;28;20017;-74
2021/06/18 10:59:42;;;;;;;8.43;6.20;;;31.60;99.90;;;;;;5035354;28;20022;-73
2021/06/18 11:04:56;;;;;;;6.68;5.40;;;31.80;99.90;;;;;;5035122;28;20047;-74
2021/06/18 11:07:48;;;;;;;7.15;5.50;;;31.60;99.90;;;;;;5030728;28;20491;-74
2021/06/18 11:10:28;;;;;;;5.75;5.15;;;31.30;99.40;;;;;;5031900;28;20045;-74
2021/06/18 11:13:12;;;;;;;9.90;5.63;;;31.40;99.90;;;;;;5029031;28;20048;-74
2021/06/18 11:15:45;;;;;;;6.35;5.70;;;31.50;99.70;;;;;;5034940;28;20403;-74
2021/06/18 11:18:17;;;;;;;7.05;5.95;;;31.60;99.90;;;;;;5019446;28;20057;-74
2021/06/18 11:20:43;;;;;;;6.80;5.20;;;31.50;99.00;;;;;;5015936;28;20475;-74
2021/06/18 11:23:23;;;;;;;6.13;5.53;;;31.40;99.00;;;;;;5030997;28;20018;-74
2021/06/18 11:25:55;;;;;;;6.32;5.72;;;31.40;99.30;;;;;;5015306;28;20030;-74
2021/06/18 11:28:20;;;;;;;6.35;5.72;;;31.40;99.90;;;;;;5034324;28;20026;-74
2021/06/18 11:31:04;;;;;;;6.15;5.60;;;31.80;98.70;;;;;;5042428;28;20511;-74
2021/06/18 11:33:50;;;;;;;6.40;5.80;;;32.00;98.90;;;;;;5044883;28;20021;-74
2021/06/18 11:36:22;;;;;;;6.18;5.47;;;32.00;98.40;;;;;;5037726;28;20113;-74
2021/06/18 11:38:51;;;;;;;7.40;5.50;;;32.20;97.30;;;;;;5039069;28;20091;-74
2021/06/18 11:41:22;;;;;;;7.63;5.15;;;32.10;96.40;;;;;;5040010;28;20056;-74
2021/06/18 11:43:52;;;;;;;7.53;4.60;;;32.20;97.30;;;;;;5049324;28;20029;-74
2021/06/18 11:46:19;;;;;;;5.90;4.05;;;32.40;94.30;;;;;;5037374;28;20025;-73
2021/06/18 11:48:45;;;;;;;6.28;4.90;;;32.50;90.60;;;;;;5034435;28;20013;-73
2021/06/18 11:51:24;;;;;;;5.60;4.93;;;32.50;92.20;;;;;;5036862;28;20029;-74
2021/06/18 11:53:50;;;;;;;5.90;5.40;;;32.50;91.50;;;;;;5044182;28;20039;-73
2021/06/18 11:56:16;;;;;;;4.93;4.53;;;32.90;92.30;;;;;;5036174;28;20446;-73
2021/06/18 11:58:43;;;;;;;6.38;4.75;;;33.30;91.70;;;;;;5039123;28;20031;-73
2021/06/18 12:01:19;;;;;;;5.07;4.68;;;33.60;91.60;;;;;;5037748;28;20018;-74
2021/06/18 12:03:45;;;;;;;;;;;33.80;91.50;;;;;;5026724;28;20444;-73
2021/06/18 12:06:18;;;;;;;5.45;4.78;;;33.20;90.40;;;;;;5016823;28;20371;-73
2021/06/18 12:09:09;;;;;;;5.60;5.05;;;33.20;89.30;;;;;;5021473;28;20083;-73
2021/06/18 12:11:40;;;;;;;5.53;5.00;;;33.40;90.20;;;;;;5034734;28;20021;-73
2021/06/18 12:14:08;;;;;;;5.30;4.82;;;33.80;90.60;;;;;;5016340;28;20500;-73
2021/06/18 12:16:36;;;;;;;5.60;4.47;;;33.80;90.20;;;;;;5037909;28;20021;-73
2021/06/18 12:19:23;;;;;;;5.65;5.15;;;33.90;91.50;;;;;;5036538;28;20051;-73
2021/06/18 12:22:09;;;;;;;5.55;5.05;;;33.90;88.80;;;;;;5035815;28;20025;-74
2021/06/18 12:24:35;;;;;;;5.18;4.68;;;33.50;92.00;;;;;;5045729;28;20028;-74
2021/06/18 12:27:03;;;;;;;5.50;4.97;;;33.50;90.80;;;;;;5035368;28;20022;-73
2021/06/18 12:29:29;;;;;;;6.03;5.30;;;33.60;90.60;;;;;;5015410;28;20053;-74
2021/06/18 12:31:56;;;;;;;5.45;5.05;;;33.40;88.90;;;;;;5038716;28;20029;-73
2021/06/18 12:34:22;;;;;;;5.32;4.80;;;33.30;91.00;;;;;;5037260;28;20372;-73
2021/06/18 12:37:00;;;;;;;5.50;5.00;;;33.60;90.60;;;;;;5036823;28;20021;-74
2021/06/18 12:39:25;;;;;;;5.50;5.00;;;33.90;88.60;;;;;;5038388;28;20044;-73
2021/06/18 12:41:51;;;;;;;5.95;5.30;;;34.40;86.20;;;;;;5033771;28;20380;-73
2021/06/18 12:44:28;;;;;;;5.63;5.07;;;34.40;88.80;;;;;;5045889;28;20122;-73
2021/06/18 12:47:01;;;;;;;7.88;5.13;;;34.30;88.60;;;;;;5039093;28;20032;-73
2021/06/18 12:49:30;;;;;;;5.38;4.88;;;34.50;86.00;;;;;;5019043;28;20024;-73
2021/06/18 12:52:14;;;;;;;5.47;4.97;;;34.70;88.00;;;;;;5035926;28;20025;-74
2021/06/18 12:54:41;;;;;;;7.30;5.28;;;35.00;85.20;;;;;;5023477;28;20022;-73
2021/06/18 12:57:07;;;;;;;5.22;4.78;;;34.80;84.90;;;;;;5045735;28;20020;-74
2021/06/18 12:59:37;;;;;;;6.88;5.30;;;34.80;86.20;;;;;;5034584;28;20112;-73